sensor_id;sensor_type;location;lat;lon;timestamp;pressure;altitude;pressure_sealevel;temperature
68588;BMP180;55560;52.174;20.996;2024-01-07T00:02:08;100581.20;;;-4.40
68588;BMP180;55560;52.174;20.996;2024-01-07T00:04:35;100592.60;;;-4.40
68588;BMP180;55560;52.174;20.996;2024-01-07T00:07:04;100584.00;;;-4.40
68588;BMP180;55560;52.174;20.996;2024-01-07T00:09:33;100588.60;;;-4.40
68588;BMP180;55560;52.174;20.996;2024-01-07T00:12:01;100581.20;;;-4.44
68588;BMP180;55560;52.174;20.996;2024-01-07T00:14:29;100587.60;;;-4.50
68588;BMP180;55560;52.174;20.996;2024-01-07T00:16:57;100594.20;;;-4.50
68588;BMP180;55560;52.174;20.996;2024-01-07T00:19:27;100589.40;;;-4.50
68588;BMP180;55560;52.174;20.996;2024-01-07T00:21:55;100593.40;;;-4.50
68588;BMP180;55560;52.174;20.996;2024-01-07T00:24:24;100591.60;;;-4.50
68588;BMP180;55560;52.174;20.996;2024-01-07T00:26:53;100596.80;;;-4.50
68588;BMP180;55560;52.174;20.996;2024-01-07T00:29:21;100594.60;;;-4.50
68588;BMP180;55560;52.174;20.996;2024-01-07T00:31:49;100602.00;;;-4.60
68588;BMP180;55560;52.174;20.996;2024-01-07T00:34:18;100598.60;;;-4.60
68588;BMP180;55560;52.174;20.996;2024-01-07T00:36:46;100602.40;;;-4.60
68588;BMP180;55560;52.174;20.996;2024-01-07T00:39:14;100605.00;;;-4.60
68588;BMP180;55560;52.174;20.996;2024-01-07T00:41:42;100605.00;;;-4.60
68588;BMP180;55560;52.174;20.996;2024-01-07T00:44:11;100602.80;;;-4.60
68588;BMP180;55560;52.174;20.996;2024-01-07T00:46:38;100606.20;;;-4.60
68588;BMP180;55560;52.174;20.996;2024-01-07T00:49:06;100613.20;;;-4.60
68588;BMP180;55560;52.174;20.996;2024-01-07T00:51:35;100613.20;;;-4.70
68588;BMP180;55560;52.174;20.996;2024-01-07T00:54:03;100615.60;;;-4.70
68588;BMP180;55560;52.174;20.996;2024-01-07T00:56:31;100619.60;;;-4.78
68588;BMP180;55560;52.174;20.996;2024-01-07T00:58:59;100621.80;;;-4.78
68588;BMP180;55560;52.174;20.996;2024-01-07T01:01:29;100620.20;;;-4.78
68588;BMP180;55560;52.174;20.996;2024-01-07T01:03:57;100624.40;;;-4.76
68588;BMP180;55560;52.174;20.996;2024-01-07T01:06:26;100635.00;;;-4.80
68588;BMP180;55560;52.174;20.996;2024-01-07T01:08:54;100628.80;;;-4.80
68588;BMP180;55560;52.174;20.996;2024-01-07T01:11:22;100631.60;;;-4.80
68588;BMP180;55560;52.174;20.996;2024-01-07T01:13:50;100632.20;;;-4.80
68588;BMP180;55560;52.174;20.996;2024-01-07T01:16:18;100634.80;;;-4.80
68588;BMP180;55560;52.174;20.996;2024-01-07T01:18:51;100637.20;;;-4.80
68588;BMP180;55560;52.174;20.996;2024-01-07T01:21:19;100635.40;;;-4.80
68588;BMP180;55560;52.174;20.996;2024-01-07T01:23:48;100639.20;;;-4.80
68588;BMP180;55560;52.174;20.996;2024-01-07T01:26:16;100637.80;;;-4.80
68588;BMP180;55560;52.174;20.996;2024-01-07T01:28:44;100633.40;;;-4.80
68588;BMP180;55560;52.174;20.996;2024-01-07T01:31:13;100636.00;;;-4.80
68588;BMP180;55560;52.174;20.996;2024-01-07T01:33:42;100633.20;;;-4.80
68588;BMP180;55560;52.174;20.996;2024-01-07T01:36:11;100638.60;;;-4.80
68588;BMP180;55560;52.174;20.996;2024-01-07T01:38:39;100635.60;;;-4.80
68588;BMP180;55560;52.174;20.996;2024-01-07T01:41:07;100634.20;;;-4.80
68588;BMP180;55560;52.174;20.996;2024-01-07T01:43:35;100631.00;;;-4.80
68588;BMP180;55560;52.174;20.996;2024-01-07T01:46:03;100636.20;;;-4.80
68588;BMP180;55560;52.174;20.996;2024-01-07T01:48:31;100631.00;;;-4.80
68588;BMP180;55560;52.174;20.996;2024-01-07T01:50:59;100630.80;;;-4.80
68588;BMP180;55560;52.174;20.996;2024-01-07T01:53:27;100627.60;;;-4.82
68588;BMP180;55560;52.174;20.996;2024-01-07T01:55:57;100628.20;;;-4.84
68588;BMP180;55560;52.174;20.996;2024-01-07T01:58:25;100625.60;;;-4.80
68588;BMP180;55560;52.174;20.996;2024-01-07T02:00:54;100629.40;;;-4.84
68588;BMP180;55560;52.174;20.996;2024-01-07T02:03:22;100625.80;;;-4.80
68588;BMP180;55560;52.174;20.996;2024-01-07T02:05:51;100621.40;;;-4.80
68588;BMP180;55560;52.174;20.996;2024-01-07T02:08:20;100622.40;;;-4.80
68588;BMP180;55560;52.174;20.996;2024-01-07T02:10:48;100627.20;;;-4.80
68588;BMP180;55560;52.174;20.996;2024-01-07T02:13:16;100622.00;;;-4.80
68588;BMP180;55560;52.174;20.996;2024-01-07T02:15:44;100618.40;;;-4.80
68588;BMP180;55560;52.174;20.996;2024-01-07T02:18:12;100617.00;;;-4.80
68588;BMP180;55560;52.174;20.996;2024-01-07T02:20:40;100610.60;;;-4.80
68588;BMP180;55560;52.174;20.996;2024-01-07T02:23:08;100608.60;;;-4.80
68588;BMP180;55560;52.174;20.996;2024-01-07T02:25:36;100611.40;;;-4.72
68588;BMP180;55560;52.174;20.996;2024-01-07T02:28:05;100614.60;;;-4.72
68588;BMP180;55560;52.174;20.996;2024-01-07T02:30:34;100613.40;;;-4.70
68588;BMP180;55560;52.174;20.996;2024-01-07T02:33:05;100610.40;;;-4.70
68588;BMP180;55560;52.174;20.996;2024-01-07T02:35:33;100610.60;;;-4.70
68588;BMP180;55560;52.174;20.996;2024-01-07T02:38:01;100608.20;;;-4.70
68588;BMP180;55560;52.174;20.996;2024-01-07T02:40:29;100607.60;;;-4.70
68588;BMP180;55560;52.174;20.996;2024-01-07T02:42:57;100607.20;;;-4.64
68588;BMP180;55560;52.174;20.996;2024-01-07T02:45:26;100602.80;;;-4.60
68588;BMP180;55560;52.174;20.996;2024-01-07T02:47:54;100601.40;;;-4.60
68588;BMP180;55560;52.174;20.996;2024-01-07T02:50:22;100605.00;;;-4.60
68588;BMP180;55560;52.174;20.996;2024-01-07T02:52:51;100607.20;;;-4.60
68588;BMP180;55560;52.174;20.996;2024-01-07T02:55:18;100609.80;;;-4.60
68588;BMP180;55560;52.174;20.996;2024-01-07T02:57:46;100610.80;;;-4.54
68588;BMP180;55560;52.174;20.996;2024-01-07T03:00:15;100610.60;;;-4.50
68588;BMP180;55560;52.174;20.996;2024-01-07T03:02:43;100613.60;;;-4.52
68588;BMP180;55560;52.174;20.996;2024-01-07T03:05:11;100612.60;;;-4.60
68588;BMP180;55560;52.174;20.996;2024-01-07T03:07:39;100612.60;;;-4.60
68588;BMP180;55560;52.174;20.996;2024-01-07T03:10:07;100612.00;;;-4.60
68588;BMP180;55560;52.174;20.996;2024-01-07T03:12:36;100618.40;;;-4.68
68588;BMP180;55560;52.174;20.996;2024-01-07T03:15:04;100615.80;;;-4.72
68588;BMP180;55560;52.174;20.996;2024-01-07T03:17:33;100614.20;;;-4.80
68588;BMP180;55560;52.174;20.996;2024-01-07T03:20:02;100617.20;;;-4.80
68588;BMP180;55560;52.174;20.996;2024-01-07T03:22:31;100622.00;;;-4.80
68588;BMP180;55560;52.174;20.996;2024-01-07T03:24:59;100617.60;;;-4.80
68588;BMP180;55560;52.174;20.996;2024-01-07T03:27:27;100615.60;;;-4.88
68588;BMP180;55560;52.174;20.996;2024-01-07T03:29:55;100618.60;;;-4.90
68588;BMP180;55560;52.174;20.996;2024-01-07T03:32:22;100617.60;;;-4.90
68588;BMP180;55560;52.174;20.996;2024-01-07T03:34:50;100617.40;;;-4.90
68588;BMP180;55560;52.174;20.996;2024-01-07T03:37:18;100621.00;;;-4.90
68588;BMP180;55560;52.174;20.996;2024-01-07T03:39:47;100619.20;;;-4.90
68588;BMP180;55560;52.174;20.996;2024-01-07T03:42:15;100622.20;;;-4.90
68588;BMP180;55560;52.174;20.996;2024-01-07T03:44:43;100623.00;;;-5.00
68588;BMP180;55560;52.174;20.996;2024-01-07T03:47:11;100623.20;;;-4.98
68588;BMP180;55560;52.174;20.996;2024-01-07T03:49:39;100628.00;;;-4.94
68588;BMP180;55560;52.174;20.996;2024-01-07T03:52:10;100629.00;;;-4.98
68588;BMP180;55560;52.174;20.996;2024-01-07T03:54:38;100627.00;;;-4.96
68588;BMP180;55560;52.174;20.996;2024-01-07T03:57:06;100635.60;;;-5.00
68588;BMP180;55560;52.174;20.996;2024-01-07T03:59:34;100630.80;;;-5.00
68588;BMP180;55560;52.174;20.996;2024-01-07T04:02:02;100629.60;;;-5.00
68588;BMP180;55560;52.174;20.996;2024-01-07T04:04:30;100635.80;;;-5.10
68588;BMP180;55560;52.174;20.996;2024-01-07T04:06:58;100635.60;;;-5.10
68588;BMP180;55560;52.174;20.996;2024-01-07T04:09:27;100632.00;;;-5.10
68588;BMP180;55560;52.174;20.996;2024-01-07T04:11:55;100630.60;;;-5.10
68588;BMP180;55560;52.174;20.996;2024-01-07T04:14:22;100635.20;;;-5.20
68588;BMP180;55560;52.174;20.996;2024-01-07T04:16:50;100634.60;;;-5.20
68588;BMP180;55560;52.174;20.996;2024-01-07T04:19:18;100631.00;;;-5.20
68588;BMP180;55560;52.174;20.996;2024-01-07T04:21:46;100634.20;;;-5.20
68588;BMP180;55560;52.174;20.996;2024-01-07T04:24:14;100635.40;;;-5.10
68588;BMP180;55560;52.174;20.996;2024-01-07T04:26:42;100630.00;;;-5.10
68588;BMP180;55560;52.174;20.996;2024-01-07T04:29:10;100630.60;;;-5.10
68588;BMP180;55560;52.174;20.996;2024-01-07T04:31:38;100628.80;;;-5.18
68588;BMP180;55560;52.174;20.996;2024-01-07T04:34:07;100634.00;;;-5.20
68588;BMP180;55560;52.174;20.996;2024-01-07T04:36:35;100637.80;;;-5.20
68588;BMP180;55560;52.174;20.996;2024-01-07T04:39:03;100639.60;;;-5.20
68588;BMP180;55560;52.174;20.996;2024-01-07T04:41:31;100642.60;;;-5.24
68588;BMP180;55560;52.174;20.996;2024-01-07T04:43:59;100639.00;;;-5.30
68588;BMP180;55560;52.174;20.996;2024-01-07T04:46:27;100638.20;;;-5.30
68588;BMP180;55560;52.174;20.996;2024-01-07T04:48:55;100646.40;;;-5.30
68588;BMP180;55560;52.174;20.996;2024-01-07T04:51:23;100642.40;;;-5.30
68588;BMP180;55560;52.174;20.996;2024-01-07T04:53:51;100643.20;;;-5.38
68588;BMP180;55560;52.174;20.996;2024-01-07T04:56:20;100643.20;;;-5.40
68588;BMP180;55560;52.174;20.996;2024-01-07T04:58:48;100647.80;;;-5.40
68588;BMP180;55560;52.174;20.996;2024-01-07T05:01:16;100648.00;;;-5.40
68588;BMP180;55560;52.174;20.996;2024-01-07T05:03:44;100642.20;;;-5.40
68588;BMP180;55560;52.174;20.996;2024-01-07T05:06:12;100647.80;;;-5.40
68588;BMP180;55560;52.174;20.996;2024-01-07T05:08:42;100642.60;;;-5.50
68588;BMP180;55560;52.174;20.996;2024-01-07T05:11:10;100646.20;;;-5.58
68588;BMP180;55560;52.174;20.996;2024-01-07T05:13:39;100647.00;;;-5.58
68588;BMP180;55560;52.174;20.996;2024-01-07T05:16:07;100657.80;;;-5.50
68588;BMP180;55560;52.174;20.996;2024-01-07T05:18:35;100656.20;;;-5.50
68588;BMP180;55560;52.174;20.996;2024-01-07T05:21:05;100662.20;;;-5.50
68588;BMP180;55560;52.174;20.996;2024-01-07T05:23:33;100659.20;;;-5.50
68588;BMP180;55560;52.174;20.996;2024-01-07T05:26:01;100659.20;;;-5.50
68588;BMP180;55560;52.174;20.996;2024-01-07T05:28:29;100665.00;;;-5.50
68588;BMP180;55560;52.174;20.996;2024-01-07T05:30:57;100663.80;;;-5.50
68588;BMP180;55560;52.174;20.996;2024-01-07T05:33:25;100667.60;;;-5.50
68588;BMP180;55560;52.174;20.996;2024-01-07T05:35:53;100668.60;;;-5.50
68588;BMP180;55560;52.174;20.996;2024-01-07T05:38:21;100669.00;;;-5.50
68588;BMP180;55560;52.174;20.996;2024-01-07T05:40:49;100670.20;;;-5.50
68588;BMP180;55560;52.174;20.996;2024-01-07T05:43:17;100667.40;;;-5.52
68588;BMP180;55560;52.174;20.996;2024-01-07T05:45:45;100675.00;;;-5.60
68588;BMP180;55560;52.174;20.996;2024-01-07T05:48:13;100674.40;;;-5.60
68588;BMP180;55560;52.174;20.996;2024-01-07T05:50:41;100673.80;;;-5.60
68588;BMP180;55560;52.174;20.996;2024-01-07T05:53:09;100674.60;;;-5.56
68588;BMP180;55560;52.174;20.996;2024-01-07T05:55:37;100671.00;;;-5.60
68588;BMP180;55560;52.174;20.996;2024-01-07T05:58:05;100669.80;;;-5.58
68588;BMP180;55560;52.174;20.996;2024-01-07T06:00:33;100668.80;;;-5.54
68588;BMP180;55560;52.174;20.996;2024-01-07T06:03:01;100661.60;;;-5.50
68588;BMP180;55560;52.174;20.996;2024-01-07T06:05:29;100671.20;;;-5.50
68588;BMP180;55560;52.174;20.996;2024-01-07T06:07:57;100668.40;;;-5.50
68588;BMP180;55560;52.174;20.996;2024-01-07T06:10:26;100671.20;;;-5.40
68588;BMP180;55560;52.174;20.996;2024-01-07T06:12:54;100665.80;;;-5.42
68588;BMP180;55560;52.174;20.996;2024-01-07T06:15:22;100670.60;;;-5.48
68588;BMP180;55560;52.174;20.996;2024-01-07T06:17:50;100678.60;;;-5.50
68588;BMP180;55560;52.174;20.996;2024-01-07T06:20:18;100672.20;;;-5.50
68588;BMP180;55560;52.174;20.996;2024-01-07T06:22:47;100669.80;;;-5.50
68588;BMP180;55560;52.174;20.996;2024-01-07T06:25:15;100676.80;;;-5.54
68588;BMP180;55560;52.174;20.996;2024-01-07T06:27:43;100676.40;;;-5.60
68588;BMP180;55560;52.174;20.996;2024-01-07T06:30:11;100683.20;;;-5.60
68588;BMP180;55560;52.174;20.996;2024-01-07T06:32:39;100685.60;;;-5.60
68588;BMP180;55560;52.174;20.996;2024-01-07T06:35:08;100689.40;;;-5.60
68588;BMP180;55560;52.174;20.996;2024-01-07T06:37:35;100690.20;;;-5.56
68588;BMP180;55560;52.174;20.996;2024-01-07T06:40:04;100696.20;;;-5.50
68588;BMP180;55560;52.174;20.996;2024-01-07T06:42:32;100694.20;;;-5.50
68588;BMP180;55560;52.174;20.996;2024-01-07T06:45:00;100704.00;;;-5.50
68588;BMP180;55560;52.174;20.996;2024-01-07T06:47:30;100707.20;;;-5.50
68588;BMP180;55560;52.174;20.996;2024-01-07T06:49:57;100705.80;;;-5.50
68588;BMP180;55560;52.174;20.996;2024-01-07T06:52:26;100712.20;;;-5.50
68588;BMP180;55560;52.174;20.996;2024-01-07T06:54:53;100711.80;;;-5.50
68588;BMP180;55560;52.174;20.996;2024-01-07T06:57:22;100712.20;;;-5.52
68588;BMP180;55560;52.174;20.996;2024-01-07T06:59:49;100716.20;;;-5.58
68588;BMP180;55560;52.174;20.996;2024-01-07T07:02:17;100717.20;;;-5.50
68588;BMP180;55560;52.174;20.996;2024-01-07T07:04:45;100720.00;;;-5.56
68588;BMP180;55560;52.174;20.996;2024-01-07T07:07:14;100721.40;;;-5.58
68588;BMP180;55560;52.174;20.996;2024-01-07T07:09:42;100720.00;;;-5.58
68588;BMP180;55560;52.174;20.996;2024-01-07T07:12:12;100720.60;;;-5.60
68588;BMP180;55560;52.174;20.996;2024-01-07T07:14:40;100728.40;;;-5.56
68588;BMP180;55560;52.174;20.996;2024-01-07T07:17:08;100722.80;;;-5.60
68588;BMP180;55560;52.174;20.996;2024-01-07T07:19:36;100730.00;;;-5.58
68588;BMP180;55560;52.174;20.996;2024-01-07T07:22:04;100733.60;;;-5.50
68588;BMP180;55560;52.174;20.996;2024-01-07T07:24:32;100735.80;;;-5.50
68588;BMP180;55560;52.174;20.996;2024-01-07T07:27:01;100734.20;;;-5.50
68588;BMP180;55560;52.174;20.996;2024-01-07T07:29:28;100723.20;;;-5.50
68588;BMP180;55560;52.174;20.996;2024-01-07T07:31:56;100728.60;;;-5.56
68588;BMP180;55560;52.174;20.996;2024-01-07T07:34:25;100730.20;;;-5.52
68588;BMP180;55560;52.174;20.996;2024-01-07T07:36:53;100735.00;;;-5.60
68588;BMP180;55560;52.174;20.996;2024-01-07T07:39:21;100739.00;;;-5.60
68588;BMP180;55560;52.174;20.996;2024-01-07T07:41:49;100737.00;;;-5.60
68588;BMP180;55560;52.174;20.996;2024-01-07T07:44:17;100743.40;;;-5.60
68588;BMP180;55560;52.174;20.996;2024-01-07T07:46:45;100738.40;;;-5.58
68588;BMP180;55560;52.174;20.996;2024-01-07T07:49:13;100739.80;;;-5.50
68588;BMP180;55560;52.174;20.996;2024-01-07T07:51:44;100743.20;;;-5.54
68588;BMP180;55560;52.174;20.996;2024-01-07T07:54:12;100748.60;;;-5.56
68588;BMP180;55560;52.174;20.996;2024-01-07T07:56:40;100753.00;;;-5.56
68588;BMP180;55560;52.174;20.996;2024-01-07T07:59:08;100756.00;;;-5.50
68588;BMP180;55560;52.174;20.996;2024-01-07T08:01:36;100755.80;;;-5.50
68588;BMP180;55560;52.174;20.996;2024-01-07T08:04:05;100747.20;;;-5.44
68588;BMP180;55560;52.174;20.996;2024-01-07T08:06:33;100750.00;;;-5.40
68588;BMP180;55560;52.174;20.996;2024-01-07T08:09:01;100750.40;;;-5.42
68588;BMP180;55560;52.174;20.996;2024-01-07T08:11:29;100758.80;;;-5.40
68588;BMP180;55560;52.174;20.996;2024-01-07T08:13:57;100756.00;;;-5.40
68588;BMP180;55560;52.174;20.996;2024-01-07T08:16:25;100764.40;;;-5.40
68588;BMP180;55560;52.174;20.996;2024-01-07T08:18:53;100771.80;;;-5.36
68588;BMP180;55560;52.174;20.996;2024-01-07T08:21:24;100766.80;;;-5.30
68588;BMP180;55560;52.174;20.996;2024-01-07T08:23:52;100769.00;;;-5.30
68588;BMP180;55560;52.174;20.996;2024-01-07T08:26:20;100767.40;;;-5.28
68588;BMP180;55560;52.174;20.996;2024-01-07T08:28:52;100766.00;;;-5.22
68588;BMP180;55560;52.174;20.996;2024-01-07T08:31:20;100772.00;;;-5.20
68588;BMP180;55560;52.174;20.996;2024-01-07T08:33:48;100780.00;;;-5.20
68588;BMP180;55560;52.174;20.996;2024-01-07T08:36:16;100786.40;;;-5.20
68588;BMP180;55560;52.174;20.996;2024-01-07T08:38:44;100787.60;;;-5.20
68588;BMP180;55560;52.174;20.996;2024-01-07T08:41:16;100780.60;;;-5.20
68588;BMP180;55560;52.174;20.996;2024-01-07T08:43:44;100779.40;;;-5.16
68588;BMP180;55560;52.174;20.996;2024-01-07T08:46:15;100781.20;;;-5.10
68588;BMP180;55560;52.174;20.996;2024-01-07T08:48:43;100779.60;;;-5.10
68588;BMP180;55560;52.174;20.996;2024-01-07T08:51:11;100779.40;;;-5.00
68588;BMP180;55560;52.174;20.996;2024-01-07T08:53:39;100785.80;;;-4.96
68588;BMP180;55560;52.174;20.996;2024-01-07T08:56:09;100782.80;;;-4.90
68588;BMP180;55560;52.174;20.996;2024-01-07T08:58:38;100780.60;;;-4.90
68588;BMP180;55560;52.174;20.996;2024-01-07T09:01:08;100787.60;;;-4.90
68588;BMP180;55560;52.174;20.996;2024-01-07T09:03:36;100794.20;;;-4.90
68588;BMP180;55560;52.174;20.996;2024-01-07T09:06:04;100796.80;;;-4.90
68588;BMP180;55560;52.174;20.996;2024-01-07T09:08:33;100790.60;;;-4.86
68588;BMP180;55560;52.174;20.996;2024-01-07T09:11:05;100794.20;;;-4.82
68588;BMP180;55560;52.174;20.996;2024-01-07T09:13:34;100791.20;;;-4.80
68588;BMP180;55560;52.174;20.996;2024-01-07T09:16:03;100789.80;;;-4.70
68588;BMP180;55560;52.174;20.996;2024-01-07T09:18:32;100794.60;;;-4.60
68588;BMP180;55560;52.174;20.996;2024-01-07T09:21:04;100796.60;;;-4.50
68588;BMP180;55560;52.174;20.996;2024-01-07T09:23:34;100800.80;;;-4.40
68588;BMP180;55560;52.174;20.996;2024-01-07T09:26:04;100799.20;;;-4.40
68588;BMP180;55560;52.174;20.996;2024-01-07T09:28:37;100796.80;;;-4.40
68588;BMP180;55560;52.174;20.996;2024-01-07T09:31:06;100796.00;;;-4.40
68588;BMP180;55560;52.174;20.996;2024-01-07T09:33:35;100787.20;;;-4.40
68588;BMP180;55560;52.174;20.996;2024-01-07T09:36:07;100783.40;;;-4.50
68588;BMP180;55560;52.174;20.996;2024-01-07T09:38:52;100783.60;;;-4.52
68588;BMP180;55560;52.174;20.996;2024-01-07T09:41:21;100783.60;;;-4.60
68588;BMP180;55560;52.174;20.996;2024-01-07T09:43:51;100778.00;;;-4.60
68588;BMP180;55560;52.174;20.996;2024-01-07T09:46:20;100781.00;;;-4.70
68588;BMP180;55560;52.174;20.996;2024-01-07T09:48:50;100785.80;;;-4.70
68588;BMP180;55560;52.174;20.996;2024-01-07T09:51:21;100784.80;;;-4.80
68588;BMP180;55560;52.174;20.996;2024-01-07T09:53:50;100781.60;;;-4.80
68588;BMP180;55560;52.174;20.996;2024-01-07T09:56:25;100782.00;;;-4.80
68588;BMP180;55560;52.174;20.996;2024-01-07T09:58:55;100776.80;;;-4.80
68588;BMP180;55560;52.174;20.996;2024-01-07T10:01:25;100785.00;;;-4.80
68588;BMP180;55560;52.174;20.996;2024-01-07T10:03:54;100789.60;;;-4.80
68588;BMP180;55560;52.174;20.996;2024-01-07T10:06:22;100789.20;;;-4.80
68588;BMP180;55560;52.174;20.996;2024-01-07T10:08:50;100784.20;;;-4.80
68588;BMP180;55560;52.174;20.996;2024-01-07T10:11:18;100781.20;;;-4.88
68588;BMP180;55560;52.174;20.996;2024-01-07T10:13:46;100788.40;;;-4.90
68588;BMP180;55560;52.174;20.996;2024-01-07T10:16:19;100786.60;;;-4.90
68588;BMP180;55560;52.174;20.996;2024-01-07T10:18:47;100789.40;;;-5.00
68588;BMP180;55560;52.174;20.996;2024-01-07T10:21:15;100785.00;;;-5.00
68588;BMP180;55560;52.174;20.996;2024-01-07T10:23:43;100787.20;;;-5.04
68588;BMP180;55560;52.174;20.996;2024-01-07T10:26:12;100787.40;;;-5.08
68588;BMP180;55560;52.174;20.996;2024-01-07T10:28:54;100777.40;;;-5.00
68588;BMP180;55560;52.174;20.996;2024-01-07T10:31:25;100778.00;;;-5.00
68588;BMP180;55560;52.174;20.996;2024-01-07T10:33:53;100776.00;;;-5.00
68588;BMP180;55560;52.174;20.996;2024-01-07T10:36:24;100778.00;;;-5.00
68588;BMP180;55560;52.174;20.996;2024-01-07T10:38:52;100771.00;;;-5.00
68588;BMP180;55560;52.174;20.996;2024-01-07T10:41:21;100775.60;;;-5.00
68588;BMP180;55560;52.174;20.996;2024-01-07T10:43:49;100773.00;;;-4.98
68588;BMP180;55560;52.174;20.996;2024-01-07T10:46:18;100769.60;;;-4.90
68588;BMP180;55560;52.174;20.996;2024-01-07T10:48:51;100773.00;;;-4.90
68588;BMP180;55560;52.174;20.996;2024-01-07T10:51:21;100775.80;;;-4.90
68588;BMP180;55560;52.174;20.996;2024-01-07T10:53:52;100777.20;;;-4.90
68588;BMP180;55560;52.174;20.996;2024-01-07T10:56:24;100783.00;;;-4.86
68588;BMP180;55560;52.174;20.996;2024-01-07T10:58:53;100778.00;;;-4.88
68588;BMP180;55560;52.174;20.996;2024-01-07T11:01:22;100781.80;;;-4.88
68588;BMP180;55560;52.174;20.996;2024-01-07T11:04:15;100786.40;;;-4.90
68588;BMP180;55560;52.174;20.996;2024-01-07T11:07:11;100786.00;;;-4.90
68588;BMP180;55560;52.174;20.996;2024-01-07T11:12:29;100786.00;;;-4.90
68588;BMP180;55560;52.174;20.996;2024-01-07T11:14:57;100785.20;;;-4.84
68588;BMP180;55560;52.174;20.996;2024-01-07T11:17:39;100786.80;;;-4.80
68588;BMP180;55560;52.174;20.996;2024-01-07T11:20:21;100783.20;;;-4.80
68588;BMP180;55560;52.174;20.996;2024-01-07T11:22:50;100775.00;;;-4.80
68588;BMP180;55560;52.174;20.996;2024-01-07T11:25:30;100776.40;;;-4.70
68588;BMP180;55560;52.174;20.996;2024-01-07T11:28:01;100779.40;;;-4.70
68588;BMP180;55560;52.174;20.996;2024-01-07T11:30:30;100774.40;;;-4.60
68588;BMP180;55560;52.174;20.996;2024-01-07T11:33:05;100769.20;;;-4.62
68588;BMP180;55560;52.174;20.996;2024-01-07T11:38:20;100771.40;;;-4.60
68588;BMP180;55560;52.174;20.996;2024-01-07T11:40:49;100775.20;;;-4.60
68588;BMP180;55560;52.174;20.996;2024-01-07T11:43:18;100776.00;;;-4.60
68588;BMP180;55560;52.174;20.996;2024-01-07T11:45:49;100772.40;;;-4.50
68588;BMP180;55560;52.174;20.996;2024-01-07T11:48:18;100772.20;;;-4.50
68588;BMP180;55560;52.174;20.996;2024-01-07T11:50:47;100769.60;;;-4.50
68588;BMP180;55560;52.174;20.996;2024-01-07T11:53:17;100771.00;;;-4.50
68588;BMP180;55560;52.174;20.996;2024-01-07T11:55:46;100772.60;;;-4.42
68588;BMP180;55560;52.174;20.996;2024-01-07T11:58:14;100774.80;;;-4.40
68588;BMP180;55560;52.174;20.996;2024-01-07T12:00:42;100785.40;;;-4.40
68588;BMP180;55560;52.174;20.996;2024-01-07T12:03:10;100788.40;;;-4.40
68588;BMP180;55560;52.174;20.996;2024-01-07T12:05:40;100785.80;;;-4.40
68588;BMP180;55560;52.174;20.996;2024-01-07T12:08:11;100780.60;;;-4.48
68588;BMP180;55560;52.174;20.996;2024-01-07T12:10:39;100780.20;;;-4.42
68588;BMP180;55560;52.174;20.996;2024-01-07T12:13:07;100781.40;;;-4.50
68588;BMP180;55560;52.174;20.996;2024-01-07T12:15:37;100776.60;;;-4.50
68588;BMP180;55560;52.174;20.996;2024-01-07T12:18:05;100781.00;;;-4.60
68588;BMP180;55560;52.174;20.996;2024-01-07T12:20:34;100783.80;;;-4.70
68588;BMP180;55560;52.174;20.996;2024-01-07T12:23:10;100787.40;;;-4.70
68588;BMP180;55560;52.174;20.996;2024-01-07T12:25:38;100792.80;;;-4.70
68588;BMP180;55560;52.174;20.996;2024-01-07T12:28:06;100794.00;;;-4.70
68588;BMP180;55560;52.174;20.996;2024-01-07T12:30:34;100795.20;;;-4.72
68588;BMP180;55560;52.174;20.996;2024-01-07T12:33:04;100799.40;;;-4.80
68588;BMP180;55560;52.174;20.996;2024-01-07T12:35:34;100804.40;;;-4.82
68588;BMP180;55560;52.174;20.996;2024-01-07T12:38:02;100803.60;;;-4.90
68588;BMP180;55560;52.174;20.996;2024-01-07T12:40:32;100800.80;;;-4.90
68588;BMP180;55560;52.174;20.996;2024-01-07T12:43:00;100797.60;;;-4.90
68588;BMP180;55560;52.174;20.996;2024-01-07T12:45:28;100803.60;;;-4.90
68588;BMP180;55560;52.174;20.996;2024-01-07T12:47:56;100799.00;;;-4.90
68588;BMP180;55560;52.174;20.996;2024-01-07T12:50:28;100802.60;;;-4.90
68588;BMP180;55560;52.174;20.996;2024-01-07T12:52:57;100809.80;;;-4.90
68588;BMP180;55560;52.174;20.996;2024-01-07T12:55:26;100810.60;;;-5.00
68588;BMP180;55560;52.174;20.996;2024-01-07T12:57:54;100805.60;;;-5.00
68588;BMP180;55560;52.174;20.996;2024-01-07T13:00:23;100805.40;;;-5.00
68588;BMP180;55560;52.174;20.996;2024-01-07T13:02:51;100809.00;;;-5.00
68588;BMP180;55560;52.174;20.996;2024-01-07T13:05:19;100811.20;;;-5.00
68588;BMP180;55560;52.174;20.996;2024-01-07T13:07:47;100818.40;;;-5.04
68588;BMP180;55560;52.174;20.996;2024-01-07T13:10:15;100817.40;;;-5.10
68588;BMP180;55560;52.174;20.996;2024-01-07T13:12:44;100817.00;;;-5.00
68588;BMP180;55560;52.174;20.996;2024-01-07T13:15:17;100819.00;;;-5.10
68588;BMP180;55560;52.174;20.996;2024-01-07T13:17:46;100820.40;;;-5.10
68588;BMP180;55560;52.174;20.996;2024-01-07T13:20:15;100824.00;;;-5.14
68588;BMP180;55560;52.174;20.996;2024-01-07T13:22:45;100826.80;;;-5.20
68588;BMP180;55560;52.174;20.996;2024-01-07T13:25:14;100836.60;;;-5.24
68588;BMP180;55560;52.174;20.996;2024-01-07T13:27:42;100834.80;;;-5.30
68588;BMP180;55560;52.174;20.996;2024-01-07T13:30:13;100837.60;;;-5.30
68588;BMP180;55560;52.174;20.996;2024-01-07T13:32:41;100836.80;;;-5.30
68588;BMP180;55560;52.174;20.996;2024-01-07T13:35:09;100835.60;;;-5.30
68588;BMP180;55560;52.174;20.996;2024-01-07T13:37:39;100836.60;;;-5.30
68588;BMP180;55560;52.174;20.996;2024-01-07T13:40:11;100837.80;;;-5.30
68588;BMP180;55560;52.174;20.996;2024-01-07T13:42:39;100845.40;;;-5.30
68588;BMP180;55560;52.174;20.996;2024-01-07T13:45:07;100846.80;;;-5.30
68588;BMP180;55560;52.174;20.996;2024-01-07T13:47:36;100842.60;;;-5.30
68588;BMP180;55560;52.174;20.996;2024-01-07T13:50:04;100848.00;;;-5.30
68588;BMP180;55560;52.174;20.996;2024-01-07T13:52:33;100848.60;;;-5.40
68588;BMP180;55560;52.174;20.996;2024-01-07T13:55:01;100849.00;;;-5.40
68588;BMP180;55560;52.174;20.996;2024-01-07T13:57:29;100851.40;;;-5.50
68588;BMP180;55560;52.174;20.996;2024-01-07T13:59:58;100841.80;;;-5.54